sensor_id;sensor_type;location;lat;lon;timestamp;P1;durP1;ratioP1;P2;durP2;ratioP2
26774;SDS011;14362;51.902;7.626;2023-04-03T00:00:42;4.55;;;1.65;;
26774;SDS011;14362;51.902;7.626;2023-04-03T00:04:43;6.82;;;1.48;;
26774;SDS011;14362;51.902;7.626;2023-04-03T00:08:44;4.25;;;1.23;;
26774;SDS011;14362;51.902;7.626;2023-04-03T00:12:46;3.92;;;1.40;;
26774;SDS011;14362;51.902;7.626;2023-04-03T00:16:49;5.07;;;1.58;;
26774;SDS011;14362;51.902;7.626;2023-04-03T00:20:50;4.28;;;1.55;;
26774;SDS011;14362;51.902;7.626;2023-04-03T00:24:51;3.00;;;1.45;;
26774;SDS011;14362;51.902;7.626;2023-04-03T00:28:53;2.78;;;1.25;;
26774;SDS011;14362;51.902;7.626;2023-04-03T00:32:56;5.32;;;1.50;;
26774;SDS011;14362;51.902;7.626;2023-04-03T00:36:57;2.28;;;1.23;;
26774;SDS011;14362;51.902;7.626;2023-04-03T00:40:59;1.83;;;1.15;;
26774;SDS011;14362;51.902;7.626;2023-04-03T00:49:32;3.17;;;1.42;;
26774;SDS011;14362;51.902;7.626;2023-04-03T00:53:35;3.15;;;1.20;;
26774;SDS011;14362;51.902;7.626;2023-04-03T00:57:39;1.58;;;1.25;;
26774;SDS011;14362;51.902;7.626;2023-04-03T01:01:41;3.22;;;1.42;;
26774;SDS011;14362;51.902;7.626;2023-04-03T01:05:45;4.22;;;1.45;;
26774;SDS011;14362;51.902;7.626;2023-04-03T01:09:46;3.78;;;1.60;;
26774;SDS011;14362;51.902;7.626;2023-04-03T01:13:50;2.92;;;1.13;;
26774;SDS011;14362;51.902;7.626;2023-04-03T01:17:52;4.75;;;1.60;;
26774;SDS011;14362;51.902;7.626;2023-04-03T01:22:05;4.15;;;1.30;;
26774;SDS011;14362;51.902;7.626;2023-04-03T01:26:19;8.82;;;2.00;;
26774;SDS011;14362;51.902;7.626;2023-04-03T01:30:21;1.85;;;1.15;;
26774;SDS011;14362;51.902;7.626;2023-04-03T01:34:28;3.97;;;1.48;;
26774;SDS011;14362;51.902;7.626;2023-04-03T01:38:31;4.97;;;1.55;;
26774;SDS011;14362;51.902;7.626;2023-04-03T01:42:32;4.03;;;1.63;;
26774;SDS011;14362;51.902;7.626;2023-04-03T01:46:34;1.65;;;0.90;;
26774;SDS011;14362;51.902;7.626;2023-04-03T01:50:36;2.63;;;1.15;;
26774;SDS011;14362;51.902;7.626;2023-04-03T01:54:38;2.45;;;1.23;;
26774;SDS011;14362;51.902;7.626;2023-04-03T01:58:39;2.80;;;1.77;;
26774;SDS011;14362;51.902;7.626;2023-04-03T02:02:41;3.25;;;1.30;;
26774;SDS011;14362;51.902;7.626;2023-04-03T02:06:43;5.25;;;1.33;;
26774;SDS011;14362;51.902;7.626;2023-04-03T02:10:46;2.83;;;1.30;;
26774;SDS011;14362;51.902;7.626;2023-04-03T02:14:48;5.25;;;1.35;;
26774;SDS011;14362;51.902;7.626;2023-04-03T02:18:50;8.60;;;1.55;;
26774;SDS011;14362;51.902;7.626;2023-04-03T02:22:52;3.53;;;1.50;;
26774;SDS011;14362;51.902;7.626;2023-04-03T02:26:54;4.63;;;1.10;;
26774;SDS011;14362;51.902;7.626;2023-04-03T02:30:55;3.97;;;1.20;;
26774;SDS011;14362;51.902;7.626;2023-04-03T02:34:57;4.60;;;1.58;;
26774;SDS011;14362;51.902;7.626;2023-04-03T02:38:59;8.52;;;1.65;;
26774;SDS011;14362;51.902;7.626;2023-04-03T02:43:01;3.60;;;1.30;;
26774;SDS011;14362;51.902;7.626;2023-04-03T02:47:02;2.75;;;1.70;;
26774;SDS011;14362;51.902;7.626;2023-04-03T02:51:04;4.93;;;1.75;;
26774;SDS011;14362;51.902;7.626;2023-04-03T02:55:07;8.02;;;1.88;;
26774;SDS011;14362;51.902;7.626;2023-04-03T02:59:09;3.72;;;1.25;;
26774;SDS011;14362;51.902;7.626;2023-04-03T03:03:10;12.13;;;1.80;;
26774;SDS011;14362;51.902;7.626;2023-04-03T03:07:13;3.10;;;1.40;;
26774;SDS011;14362;51.902;7.626;2023-04-03T03:11:16;3.40;;;1.20;;
26774;SDS011;14362;51.902;7.626;2023-04-03T03:15:17;2.55;;;1.25;;
26774;SDS011;14362;51.902;7.626;2023-04-03T03:19:19;3.65;;;1.35;;
26774;SDS011;14362;51.902;7.626;2023-04-03T03:23:21;6.07;;;1.67;;
26774;SDS011;14362;51.902;7.626;2023-04-03T03:27:25;5.18;;;1.35;;
26774;SDS011;14362;51.902;7.626;2023-04-03T03:31:26;4.80;;;1.35;;
26774;SDS011;14362;51.902;7.626;2023-04-03T03:35:27;5.18;;;2.15;;
26774;SDS011;14362;51.902;7.626;2023-04-03T03:39:29;4.10;;;1.80;;
26774;SDS011;14362;51.902;7.626;2023-04-03T03:43:32;2.53;;;1.30;;
26774;SDS011;14362;51.902;7.626;2023-04-03T03:47:33;3.60;;;1.50;;
26774;SDS011;14362;51.902;7.626;2023-04-03T03:51:35;3.22;;;1.48;;
26774;SDS011;14362;51.902;7.626;2023-04-03T03:55:37;1.55;;;1.13;;
26774;SDS011;14362;51.902;7.626;2023-04-03T03:59:40;3.88;;;1.33;;
26774;SDS011;14362;51.902;7.626;2023-04-03T04:03:41;4.80;;;1.40;;
26774;SDS011;14362;51.902;7.626;2023-04-03T04:07:43;5.07;;;1.83;;
26774;SDS011;14362;51.902;7.626;2023-04-03T04:11:44;3.85;;;1.92;;
26774;SDS011;14362;51.902;7.626;2023-04-03T04:15:47;7.80;;;2.08;;
26774;SDS011;14362;51.902;7.626;2023-04-03T04:19:48;3.50;;;1.63;;
26774;SDS011;14362;51.902;7.626;2023-04-03T04:23:50;2.38;;;1.27;;
26774;SDS011;14362;51.902;7.626;2023-04-03T04:27:51;5.18;;;2.05;;
26774;SDS011;14362;51.902;7.626;2023-04-03T04:31:54;5.63;;;1.58;;
26774;SDS011;14362;51.902;7.626;2023-04-03T04:35:55;5.32;;;1.58;;
26774;SDS011;14362;51.902;7.626;2023-04-03T04:39:57;5.25;;;1.92;;
26774;SDS011;14362;51.902;7.626;2023-04-03T04:43:58;8.43;;;2.13;;
26774;SDS011;14362;51.902;7.626;2023-04-03T04:48:01;6.70;;;1.80;;
26774;SDS011;14362;51.902;7.626;2023-04-03T04:52:02;3.67;;;2.10;;
26774;SDS011;14362;51.902;7.626;2023-04-03T04:56:04;3.03;;;1.92;;
26774;SDS011;14362;51.902;7.626;2023-04-03T05:00:06;5.72;;;1.77;;
26774;SDS011;14362;51.902;7.626;2023-04-03T05:04:10;3.95;;;1.55;;
26774;SDS011;14362;51.902;7.626;2023-04-03T05:08:12;5.95;;;1.88;;
26774;SDS011;14362;51.902;7.626;2023-04-03T05:12:14;5.47;;;2.17;;
26774;SDS011;14362;51.902;7.626;2023-04-03T05:16:15;4.78;;;1.63;;
26774;SDS011;14362;51.902;7.626;2023-04-03T05:20:18;6.15;;;1.67;;
26774;SDS011;14362;51.902;7.626;2023-04-03T05:24:20;5.57;;;1.58;;
26774;SDS011;14362;51.902;7.626;2023-04-03T05:28:21;7.53;;;1.73;;
26774;SDS011;14362;51.902;7.626;2023-04-03T05:32:23;5.25;;;1.60;;
26774;SDS011;14362;51.902;7.626;2023-04-03T05:36:28;9.77;;;1.65;;
26774;SDS011;14362;51.902;7.626;2023-04-03T05:40:29;3.83;;;1.55;;
26774;SDS011;14362;51.902;7.626;2023-04-03T05:44:30;3.78;;;1.70;;
26774;SDS011;14362;51.902;7.626;2023-04-03T05:48:32;3.50;;;1.67;;
26774;SDS011;14362;51.902;7.626;2023-04-03T05:52:36;5.93;;;1.88;;
26774;SDS011;14362;51.902;7.626;2023-04-03T05:56:41;4.05;;;1.52;;
26774;SDS011;14362;51.902;7.626;2023-04-03T06:00:42;5.60;;;1.38;;
26774;SDS011;14362;51.902;7.626;2023-04-03T06:04:44;7.55;;;2.38;;
26774;SDS011;14362;51.902;7.626;2023-04-03T06:08:46;5.93;;;2.22;;
26774;SDS011;14362;51.902;7.626;2023-04-03T06:12:48;8.38;;;1.50;;
26774;SDS011;14362;51.902;7.626;2023-04-03T06:16:50;2.97;;;1.77;;
26774;SDS011;14362;51.902;7.626;2023-04-03T06:20:51;6.30;;;1.80;;
26774;SDS011;14362;51.902;7.626;2023-04-03T06:24:54;4.80;;;1.60;;
26774;SDS011;14362;51.902;7.626;2023-04-03T06:28:55;4.90;;;1.48;;
26774;SDS011;14362;51.902;7.626;2023-04-03T06:32:57;6.43;;;1.77;;
26774;SDS011;14362;51.902;7.626;2023-04-03T06:36:59;4.35;;;1.73;;
26774;SDS011;14362;51.902;7.626;2023-04-03T06:41:02;5.80;;;1.60;;
26774;SDS011;14362;51.902;7.626;2023-04-03T06:45:03;5.50;;;1.35;;
26774;SDS011;14362;51.902;7.626;2023-04-03T06:49:06;6.50;;;1.90;;
26774;SDS011;14362;51.902;7.626;2023-04-03T06:53:08;5.85;;;1.50;;
26774;SDS011;14362;51.902;7.626;2023-04-03T06:57:12;4.88;;;1.73;;
26774;SDS011;14362;51.902;7.626;2023-04-03T07:01:15;6.28;;;1.50;;
26774;SDS011;14362;51.902;7.626;2023-04-03T07:05:17;8.30;;;1.50;;
26774;SDS011;14362;51.902;7.626;2023-04-03T07:09:19;4.28;;;1.60;;
26774;SDS011;14362;51.902;7.626;2023-04-03T07:13:22;4.47;;;1.27;;
26774;SDS011;14362;51.902;7.626;2023-04-03T07:17:24;5.10;;;1.50;;
26774;SDS011;14362;51.902;7.626;2023-04-03T07:21:26;6.55;;;1.92;;
26774;SDS011;14362;51.902;7.626;2023-04-03T07:25:28;4.55;;;1.48;;
26774;SDS011;14362;51.902;7.626;2023-04-03T07:29:31;3.08;;;1.48;;
26774;SDS011;14362;51.902;7.626;2023-04-03T07:33:32;1.65;;;1.15;;
26774;SDS011;14362;51.902;7.626;2023-04-03T07:37:34;9.80;;;2.30;;
26774;SDS011;14362;51.902;7.626;2023-04-03T07:41:36;3.70;;;1.40;;
26774;SDS011;14362;51.902;7.626;2023-04-03T07:45:39;4.47;;;1.50;;
26774;SDS011;14362;51.902;7.626;2023-04-03T07:49:40;2.90;;;1.42;;
26774;SDS011;14362;51.902;7.626;2023-04-03T07:53:42;4.82;;;1.60;;
26774;SDS011;14362;51.902;7.626;2023-04-03T07:57:43;4.00;;;1.60;;
26774;SDS011;14362;51.902;7.626;2023-04-03T08:01:46;4.80;;;1.42;;
26774;SDS011;14362;51.902;7.626;2023-04-03T08:05:48;6.05;;;1.50;;
26774;SDS011;14362;51.902;7.626;2023-04-03T08:09:50;3.03;;;1.50;;
26774;SDS011;14362;51.902;7.626;2023-04-03T08:13:52;5.22;;;1.92;;
26774;SDS011;14362;51.902;7.626;2023-04-03T08:17:56;6.38;;;1.60;;
26774;SDS011;14362;51.902;7.626;2023-04-03T08:21:58;2.83;;;1.08;;
26774;SDS011;14362;51.902;7.626;2023-04-03T08:26:04;3.80;;;1.10;;
26774;SDS011;14362;51.902;7.626;2023-04-03T08:30:07;2.72;;;1.20;;
26774;SDS011;14362;51.902;7.626;2023-04-03T08:34:11;3.30;;;1.13;;
26774;SDS011;14362;51.902;7.626;2023-04-03T08:38:13;3.60;;;1.80;;
26774;SDS011;14362;51.902;7.626;2023-04-03T08:42:15;4.40;;;1.10;;
26774;SDS011;14362;51.902;7.626;2023-04-03T08:46:20;5.65;;;1.40;;
26774;SDS011;14362;51.902;7.626;2023-04-03T08:50:28;5.03;;;1.60;;
26774;SDS011;14362;51.902;7.626;2023-04-03T08:54:35;2.10;;;1.13;;
26774;SDS011;14362;51.902;7.626;2023-04-03T08:58:42;2.03;;;1.05;;
26774;SDS011;14362;51.902;7.626;2023-04-03T09:02:49;7.90;;;1.13;;
26774;SDS011;14362;51.902;7.626;2023-04-03T09:06:54;3.05;;;1.27;;
26774;SDS011;14362;51.902;7.626;2023-04-03T09:11:02;4.65;;;1.67;;
26774;SDS011;14362;51.902;7.626;2023-04-03T09:15:15;2.35;;;1.25;;
26774;SDS011;14362;51.902;7.626;2023-04-03T09:19:20;2.35;;;1.17;;
26774;SDS011;14362;51.902;7.626;2023-04-03T09:23:30;3.35;;;1.13;;
26774;SDS011;14362;51.902;7.626;2023-04-03T09:27:35;4.47;;;1.48;;
26774;SDS011;14362;51.902;7.626;2023-04-03T09:31:37;4.82;;;1.13;;
26774;SDS011;14362;51.902;7.626;2023-04-03T09:35:40;2.05;;;1.00;;
26774;SDS011;14362;51.902;7.626;2023-04-03T09:39:50;3.20;;;1.23;;
26774;SDS011;14362;51.902;7.626;2023-04-03T09:43:53;2.03;;;1.00;;
26774;SDS011;14362;51.902;7.626;2023-04-03T09:48:04;1.92;;;1.08;;
26774;SDS011;14362;51.902;7.626;2023-04-03T09:52:17;1.88;;;0.98;;
26774;SDS011;14362;51.902;7.626;2023-04-03T09:56:22;1.58;;;0.85;;
26774;SDS011;14362;51.902;7.626;2023-04-03T10:00:26;3.08;;;0.90;;
26774;SDS011;14362;51.902;7.626;2023-04-03T10:04:38;2.20;;;1.00;;
26774;SDS011;14362;51.902;7.626;2023-04-03T10:08:41;4.72;;;1.30;;
26774;SDS011;14362;51.902;7.626;2023-04-03T10:12:44;2.22;;;0.90;;
26774;SDS011;14362;51.902;7.626;2023-04-03T10:16:47;3.23;;;1.60;;
26774;SDS011;14362;51.902;7.626;2023-04-03T10:20:59;3.30;;;0.82;;
26774;SDS011;14362;51.902;7.626;2023-04-03T10:25:09;4.18;;;1.05;;
26774;SDS011;14362;51.902;7.626;2023-04-03T10:29:20;2.10;;;0.98;;
26774;SDS011;14362;51.902;7.626;2023-04-03T10:33:35;2.70;;;1.05;;
26774;SDS011;14362;51.902;7.626;2023-04-03T10:37:49;3.45;;;1.10;;
26774;SDS011;14362;51.902;7.626;2023-04-03T10:42:03;2.20;;;0.88;;
26774;SDS011;14362;51.902;7.626;2023-04-03T10:46:13;2.50;;;1.10;;
26774;SDS011;14362;51.902;7.626;2023-04-03T10:50:23;1.42;;;0.90;;
26774;SDS011;14362;51.902;7.626;2023-04-03T10:54:31;2.47;;;1.05;;
26774;SDS011;14362;51.902;7.626;2023-04-03T10:58:40;3.70;;;1.50;;
26774;SDS011;14362;51.902;7.626;2023-04-03T11:02:48;2.25;;;0.82;;
26774;SDS011;14362;51.902;7.626;2023-04-03T11:06:53;2.95;;;0.95;;
26774;SDS011;14362;51.902;7.626;2023-04-03T11:11:01;1.35;;;0.80;;
26774;SDS011;14362;51.902;7.626;2023-04-03T11:15:11;2.50;;;1.10;;
26774;SDS011;14362;51.902;7.626;2023-04-03T11:19:17;2.35;;;1.02;;
26774;SDS011;14362;51.902;7.626;2023-04-03T11:23:24;5.15;;;1.30;;
26774;SDS011;14362;51.902;7.626;2023-04-03T11:27:27;5.57;;;1.65;;
26774;SDS011;14362;51.902;7.626;2023-04-03T11:31:41;3.42;;;1.02;;
26774;SDS011;14362;51.902;7.626;2023-04-03T11:35:57;1.85;;;0.90;;
26774;SDS011;14362;51.902;7.626;2023-04-03T11:40:05;4.00;;;1.20;;
26774;SDS011;14362;51.902;7.626;2023-04-03T11:44:25;3.50;;;0.80;;
26774;SDS011;14362;51.902;7.626;2023-04-03T11:57:44;1.80;;;0.80;;
26774;SDS011;14362;51.902;7.626;2023-04-03T12:01:47;3.00;;;0.95;;
26774;SDS011;14362;51.902;7.626;2023-04-03T12:05:50;2.88;;;1.08;;
26774;SDS011;14362;51.902;7.626;2023-04-03T12:09:56;2.63;;;0.98;;
26774;SDS011;14362;51.902;7.626;2023-04-03T12:14:03;3.13;;;1.05;;
26774;SDS011;14362;51.902;7.626;2023-04-03T12:22:41;4.25;;;1.17;;
26774;SDS011;14362;51.902;7.626;2023-04-03T12:27:21;2.83;;;1.10;;
26774;SDS011;14362;51.902;7.626;2023-04-03T12:31:32;2.60;;;1.10;;
26774;SDS011;14362;51.902;7.626;2023-04-03T12:35:47;1.90;;;1.10;;
26774;SDS011;14362;51.902;7.626;2023-04-03T12:40:02;3.38;;;1.33;;
26774;SDS011;14362;51.902;7.626;2023-04-03T12:48:47;2.47;;;1.02;;
26774;SDS011;14362;51.902;7.626;2023-04-03T12:52:57;4.97;;;1.30;;
26774;SDS011;14362;51.902;7.626;2023-04-03T12:57:09;5.15;;;0.80;;
26774;SDS011;14362;51.902;7.626;2023-04-03T13:01:13;5.18;;;1.30;;
26774;SDS011;14362;51.902;7.626;2023-04-03T13:05:18;3.05;;;1.05;;
26774;SDS011;14362;51.902;7.626;2023-04-03T13:09:22;1.88;;;1.27;;
26774;SDS011;14362;51.902;7.626;2023-04-03T13:13:28;3.15;;;1.00;;
26774;SDS011;14362;51.902;7.626;2023-04-03T13:17:31;2.42;;;1.27;;
26774;SDS011;14362;51.902;7.626;2023-04-03T13:21:34;2.83;;;1.00;;
26774;SDS011;14362;51.902;7.626;2023-04-03T13:25:37;3.70;;;1.13;;
26774;SDS011;14362;51.902;7.626;2023-04-03T13:29:43;2.08;;;1.30;;
26774;SDS011;14362;51.902;7.626;2023-04-03T13:33:55;3.85;;;1.23;;
26774;SDS011;14362;51.902;7.626;2023-04-03T13:38:00;3.17;;;1.42;;
26774;SDS011;14362;51.902;7.626;2023-04-03T13:42:14;8.07;;;1.30;;
26774;SDS011;14362;51.902;7.626;2023-04-03T13:46:22;5.75;;;1.67;;
26774;SDS011;14362;51.902;7.626;2023-04-03T13:50:26;3.88;;;1.95;;
26774;SDS011;14362;51.902;7.626;2023-04-03T13:54:29;4.57;;;1.47;;
26774;SDS011;14362;51.902;7.626;2023-04-03T13:58:33;4.80;;;1.30;;
26774;SDS011;14362;51.902;7.626;2023-04-03T14:02:38;5.35;;;1.15;;
26774;SDS011;14362;51.902;7.626;2023-04-03T14:06:42;3.78;;;1.20;;
26774;SDS011;14362;51.902;7.626;2023-04-03T14:10:45;3.28;;;1.13;;
26774;SDS011;14362;51.902;7.626;2023-04-03T14:14:47;2.05;;;1.13;;
26774;SDS011;14362;51.902;7.626;2023-04-03T14:18:49;3.33;;;1.42;;
26774;SDS011;14362;51.902;7.626;2023-04-03T14:22:53;3.33;;;1.27;;
26774;SDS011;14362;51.902;7.626;2023-04-03T14:26:55;3.05;;;1.48;;
26774;SDS011;14362;51.902;7.626;2023-04-03T14:30:56;2.47;;;1.13;;
26774;SDS011;14362;51.902;7.626;2023-04-03T14:34:58;5.55;;;1.48;;
26774;SDS011;14362;51.902;7.626;2023-04-03T14:39:03;2.20;;;1.23;;
26774;SDS011;14362;51.902;7.626;2023-04-03T14:43:08;2.67;;;1.25;;
26774;SDS011;14362;51.902;7.626;2023-04-03T14:47:11;1.38;;;1.00;;
26774;SDS011;14362;51.902;7.626;2023-04-03T14:51:14;2.33;;;1.30;;
26774;SDS011;14362;51.902;7.626;2023-04-03T14:55:18;3.88;;;1.60;;
26774;SDS011;14362;51.902;7.626;2023-04-03T14:59:21;3.67;;;1.30;;
26774;SDS011;14362;51.902;7.626;2023-04-03T15:03:23;1.40;;;1.00;;
26774;SDS011;14362;51.902;7.626;2023-04-03T15:07:25;2.63;;;1.30;;
26774;SDS011;14362;51.902;7.626;2023-04-03T15:11:29;3.05;;;1.38;;
26774;SDS011;14362;51.902;7.626;2023-04-03T15:15:31;3.97;;;1.58;;
26774;SDS011;14362;51.902;7.626;2023-04-03T15:19:36;2.72;;;1.20;;
26774;SDS011;14362;51.902;7.626;2023-04-03T15:23:39;5.50;;;1.30;;
26774;SDS011;14362;51.902;7.626;2023-04-03T15:27:41;4.15;;;1.48;;
26774;SDS011;14362;51.902;7.626;2023-04-03T15:31:43;5.63;;;1.42;;
26774;SDS011;14362;51.902;7.626;2023-04-03T15:35:44;2.53;;;1.20;;
26774;SDS011;14362;51.902;7.626;2023-04-03T15:39:46;2.70;;;1.33;;
26774;SDS011;14362;51.902;7.626;2023-04-03T15:43:49;3.38;;;1.50;;
26774;SDS011;14362;51.902;7.626;2023-04-03T15:47:50;1.83;;;1.02;;
26774;SDS011;14362;51.902;7.626;2023-04-03T15:51:52;3.13;;;1.50;;
26774;SDS011;14362;51.902;7.626;2023-04-03T15:55:53;1.70;;;1.10;;
26774;SDS011;14362;51.902;7.626;2023-04-03T15:59:56;3.40;;;1.10;;
26774;SDS011;14362;51.902;7.626;2023-04-03T16:03:57;2.63;;;1.30;;
26774;SDS011;14362;51.902;7.626;2023-04-03T16:07:59;4.22;;;1.27;;
26774;SDS011;14362;51.902;7.626;2023-04-03T16:12:01;4.45;;;1.17;;
26774;SDS011;14362;51.902;7.626;2023-04-03T16:16:04;1.67;;;1.08;;
26774;SDS011;14362;51.902;7.626;2023-04-03T16:20:07;3.17;;;1.20;;
26774;SDS011;14362;51.902;7.626;2023-04-03T16:24:10;3.80;;;1.30;;
26774;SDS011;14362;51.902;7.626;2023-04-03T16:28:11;2.53;;;1.20;;
26774;SDS011;14362;51.902;7.626;2023-04-03T16:32:15;2.88;;;1.15;;
26774;SDS011;14362;51.902;7.626;2023-04-03T16:36:17;2.47;;;1.58;;
26774;SDS011;14362;51.902;7.626;2023-04-03T16:40:18;4.05;;;1.15;;
26774;SDS011;14362;51.902;7.626;2023-04-03T16:44:19;3.55;;;1.40;;
26774;SDS011;14362;51.902;7.626;2023-04-03T16:48:23;1.85;;;1.23;;
26774;SDS011;14362;51.902;7.626;2023-04-03T16:52:24;4.22;;;1.88;;
26774;SDS011;14362;51.902;7.626;2023-04-03T16:56:26;2.75;;;1.17;;
26774;SDS011;14362;51.902;7.626;2023-04-03T17:00:28;1.35;;;1.17;;
26774;SDS011;14362;51.902;7.626;2023-04-03T17:04:31;2.13;;;1.13;;
26774;SDS011;14362;51.902;7.626;2023-04-03T17:08:33;6.40;;;1.30;;
26774;SDS011;14362;51.902;7.626;2023-04-03T17:12:35;3.50;;;1.15;;
26774;SDS011;14362;51.902;7.626;2023-04-03T17:16:36;4.00;;;1.08;;
26774;SDS011;14362;51.902;7.626;2023-04-03T17:20:40;3.00;;;1.20;;
26774;SDS011;14362;51.902;7.626;2023-04-03T17:24:41;4.32;;;1.30;;
26774;SDS011;14362;51.902;7.626;2023-04-03T17:28:43;3.13;;;1.38;;
26774;SDS011;14362;51.902;7.626;2023-04-03T17:32:45;2.55;;;1.30;;
26774;SDS011;14362;51.902;7.626;2023-04-03T17:36:48;4.45;;;1.20;;
26774;SDS011;14362;51.902;7.626;2023-04-03T17:40:49;5.25;;;1.33;;
26774;SDS011;14362;51.902;7.626;2023-04-03T17:44:51;3.80;;;1.38;;
26774;SDS011;14362;51.902;7.626;2023-04-03T17:48:52;3.83;;;1.38;;
26774;SDS011;14362;51.902;7.626;2023-04-03T17:52:55;3.50;;;1.60;;
26774;SDS011;14362;51.902;7.626;2023-04-03T17:56:57;2.25;;;1.10;;
26774;SDS011;14362;51.902;7.626;2023-04-03T18:00:58;2.25;;;1.40;;
26774;SDS011;14362;51.902;7.626;2023-04-03T18:05:00;3.40;;;1.30;;
26774;SDS011;14362;51.902;7.626;2023-04-03T18:09:04;4.50;;;1.90;;
26774;SDS011;14362;51.902;7.626;2023-04-03T18:13:08;3.00;;;1.25;;
26774;SDS011;14362;51.902;7.626;2023-04-03T18:17:10;5.45;;;1.88;;
26774;SDS011;14362;51.902;7.626;2023-04-03T18:21:12;2.90;;;1.73;;
26774;SDS011;14362;51.902;7.626;2023-04-03T18:25:16;4.60;;;1.70;;
26774;SDS011;14362;51.902;7.626;2023-04-03T18:29:18;3.13;;;1.83;;
26774;SDS011;14362;51.902;7.626;2023-04-03T18:33:21;3.80;;;1.55;;
26774;SDS011;14362;51.902;7.626;2023-04-03T18:37:22;2.50;;;1.63;;
26774;SDS011;14362;51.902;7.626;2023-04-03T18:41:26;4.85;;;1.70;;
26774;SDS011;14362;51.902;7.626;2023-04-03T18:45:31;8.10;;;2.20;;
26774;SDS011;14362;51.902;7.626;2023-04-03T18:49:33;6.32;;;2.38;;
26774;SDS011;14362;51.902;7.626;2023-04-03T18:53:37;4.85;;;1.98;;
26774;SDS011;14362;51.902;7.626;2023-04-03T18:57:40;4.25;;;1.98;;
26774;SDS011;14362;51.902;7.626;2023-04-03T19:01:41;3.72;;;1.80;;
26774;SDS011;14362;51.902;7.626;2023-04-03T19:05:43;4.03;;;1.92;;
26774;SDS011;14362;51.902;7.626;2023-04-03T19:09:45;3.88;;;2.25;;
26774;SDS011;14362;51.902;7.626;2023-04-03T19:13:48;5.20;;;2.05;;
26774;SDS011;14362;51.902;7.626;2023-04-03T19:17:49;5.65;;;2.63;;
26774;SDS011;14362;51.902;7.626;2023-04-03T19:21:51;3.22;;;1.92;;
26774;SDS011;14362;51.902;7.626;2023-04-03T19:25:58;4.03;;;2.42;;
26774;SDS011;14362;51.902;7.626;2023-04-03T19:30:03;8.00;;;2.53;;
26774;SDS011;14362;51.902;7.626;2023-04-03T19:34:05;4.57;;;2.75;;
26774;SDS011;14362;51.902;7.626;2023-04-03T19:38:08;7.18;;;3.10;;
26774;SDS011;14362;51.902;7.626;2023-04-03T19:42:09;5.25;;;2.85;;
26774;SDS011;14362;51.902;7.626;2023-04-03T19:46:12;5.88;;;2.65;;
26774;SDS011;14362;51.902;7.626;2023-04-03T19:50:13;7.95;;;3.22;;
26774;SDS011;14362;51.902;7.626;2023-04-03T19:54:15;10.00;;;4.43;;
26774;SDS011;14362;51.902;7.626;2023-04-03T19:58:17;8.60;;;5.18;;
26774;SDS011;14362;51.902;7.626;2023-04-03T20:02:20;9.40;;;5.30;;
26774;SDS011;14362;51.902;7.626;2023-04-03T20:06:21;12.25;;;6.18;;
26774;SDS011;14362;51.902;7.626;2023-04-03T20:10:23;12.00;;;5.53;;
26774;SDS011;14362;51.902;7.626;2023-04-03T20:14:25;10.35;;;5.15;;
26774;SDS011;14362;51.902;7.626;2023-04-03T20:18:29;10.93;;;5.03;;
26774;SDS011;14362;51.902;7.626;2023-04-03T20:22:31;9.07;;;4.50;;
26774;SDS011;14362;51.902;7.626;2023-04-03T20:26:33;7.47;;;3.92;;
26774;SDS011;14362;51.902;7.626;2023-04-03T20:30:36;10.45;;;3.70;;
26774;SDS011;14362;51.902;7.626;2023-04-03T20:34:40;10.50;;;3.28;;
26774;SDS011;14362;51.902;7.626;2023-04-03T20:38:42;4.32;;;2.55;;
26774;SDS011;14362;51.902;7.626;2023-04-03T20:42:43;10.45;;;2.70;;
26774;SDS011;14362;51.902;7.626;2023-04-03T20:46:45;4.07;;;2.20;;
26774;SDS011;14362;51.902;7.626;2023-04-03T20:50:48;3.67;;;2.13;;
26774;SDS011;14362;51.902;7.626;2023-04-03T20:54:49;8.63;;;2.80;;
26774;SDS011;14362;51.902;7.626;2023-04-03T20:58:53;5.70;;;2.55;;
26774;SDS011;14362;51.902;7.626;2023-04-03T21:02:57;6.82;;;3.38;;
26774;SDS011;14362;51.902;7.626;2023-04-03T21:20:22;7.93;;;3.35;;
26774;SDS011;14362;51.902;7.626;2023-04-03T21:24:23;8.43;;;4.25;;
26774;SDS011;14362;51.902;7.626;2023-04-03T21:28:25;6.40;;;3.28;;
26774;SDS011;14362;51.902;7.626;2023-04-03T21:32:26;9.38;;;4.45;;
26774;SDS011;14362;51.902;7.626;2023-04-03T21:36:39;9.75;;;3.25;;
26774;SDS011;14362;51.902;7.626;2023-04-03T21:40:40;9.77;;;4.10;;
26774;SDS011;14362;51.902;7.626;2023-04-03T21:44:45;5.85;;;3.80;;
26774;SDS011;14362;51.902;7.626;2023-04-03T21:48:47;8.60;;;3.70;;
26774;SDS011;14362;51.902;7.626;2023-04-03T21:52:52;5.40;;;3.30;;
26774;SDS011;14362;51.902;7.626;2023-04-03T21:56:55;8.23;;;3.05;;
26774;SDS011;14362;51.902;7.626;2023-04-03T22:00:57;5.75;;;3.10;;
26774;SDS011;14362;51.902;7.626;2023-04-03T22:04:59;6.85;;;3.38;;
26774;SDS011;14362;51.902;7.626;2023-04-03T22:09:02;5.40;;;2.85;;
26774;SDS011;14362;51.902;7.626;2023-04-03T22:13:03;8.32;;;3.53;;
26774;SDS011;14362;51.902;7.626;2023-04-03T22:17:05;4.90;;;2.67;;
26774;SDS011;14362;51.902;7.626;2023-04-03T22:21:06;8.95;;;2.88;;
26774;SDS011;14362;51.902;7.626;2023-04-03T22:25:10;5.60;;;2.65;;
26774;SDS011;14362;51.902;7.626;2023-04-03T22:29:11;5.90;;;2.70;;
26774;SDS011;14362;51.902;7.626;2023-04-03T22:33:13;5.90;;;2.85;;
26774;SDS011;14362;51.902;7.626;2023-04-03T22:37:14;5.63;;;3.13;;
26774;SDS011;14362;51.902;7.626;2023-04-03T22:41:17;8.95;;;2.60;;
26774;SDS011;14362;51.902;7.626;2023-04-03T22:45:18;7.65;;;3.13;;
26774;SDS011;14362;51.902;7.626;2023-04-03T22:49:20;5.40;;;2.70;;
26774;SDS011;14362;51.902;7.626;2023-04-03T22:53:23;5.13;;;2.55;;
26774;SDS011;14362;51.902;7.626;2023-04-03T22:57:25;8.55;;;3.33;;
26774;SDS011;14362;51.902;7.626;2023-04-03T23:01:27;5.55;;;2.30;;
26774;SDS011;14362;51.902;7.626;2023-04-03T23:05:29;3.55;;;2.15;;
26774;SDS011;14362;51.902;7.626;2023-04-03T23:09:30;5.70;;;2.90;;
26774;SDS011;14362;51.902;7.626;2023-04-03T23:13:33;3.97;;;2.55;;
26774;SDS011;14362;51.902;7.626;2023-04-03T23:17:35;5.22;;;3.00;;
26774;SDS011;14362;51.902;7.626;2023-04-03T23:21:37;5.28;;;2.40;;
26774;SDS011;14362;51.902;7.626;2023-04-03T23:25:38;4.22;;;2.40;;
26774;SDS011;14362;51.902;7.626;2023-04-03T23:29:41;6.38;;;2.53;;
26774;SDS011;14362;51.902;7.626;2023-04-03T23:33:43;5.00;;;2.65;;
26774;SDS011;14362;51.902;7.626;2023-04-03T23:37:45;3.90;;;2.33;;
26774;SDS011;14362;51.902;7.626;2023-04-03T23:41:46;5.75;;;2.20;;
26774;SDS011;14362;51.902;7.626;2023-04-03T23:45:49;5.07;;;2.53;;
26774;SDS011;14362;51.902;7.626;2023-04-03T23:49:51;4.45;;;2.95;;
26774;SDS011;14362;51.902;7.626;2023-04-03T23:53:52;4.60;;;2.92;;
26774;SDS011;14362;51.902;7.626;2023-04-03T23:57:54;5.93;;;2.92;;
